Druid Hills, Georgia
Current Conditions -  °F | °C
As of 10:53 AM on Sunday 21 Dec 2014 (Local Time) from KPDK Reporting Station
Haze Haze  
Wind Chill:   Ceiling: 800
Heat Index:   Visibility: 4mi
Dew Point:   Wind: 5mph
Humidity: 86%   Direction: NA
Pressure: 30.21"   Gusts: NA
Location:  33.7788°N, 84.3361°W
Report Text: KPDK 211553Z VRB04KT 4SM BR OVC008 08/06 A3021 RMK AO2 SLP237 T00780056 $
Loading
Personal Weather Stations






























Interactive Weather Map New forecast layout! Learn more

10-Day Weather Forecast

Advertisements
Track Severe Weather on mobile